Time;durP1;ratioP1;P1;durP2;ratioP2;P2;SDS_P1;SDS_P2;PMS_P1;PMS_P2;Temp;Humidity;BMP_temperature;BMP_pressure;BME280_temperature;BME280_humidity;BME280_pressure;Samples;Min_cycle;Max_cycle;Signal;HPM_P1;HPM_P2
2023/03/28 00:00:53;;;;;;;;;;;2.10;99.90;;;;;;5133941;27;19923;-36
2023/03/28 00:03:21;;;;;;;;;;;2.00;99.90;;;;;;5171745;27;19923;-35
2023/03/28 00:05:48;;;;;;;;;;;2.10;99.90;;;;;;5134098;27;19930;-35
2023/03/28 00:08:15;;;;;;;;;;;2.10;99.90;;;;;;5152371;27;19930;-35
2023/03/28 00:10:42;;;;;;;;;;;2.00;99.90;;;;;;5133086;27;20422;-35
2023/03/28 00:13:12;;;;;;;;;;;2.00;99.90;;;;;;5167657;27;19981;-35
2023/03/28 00:15:39;;;;;;;;;;;2.00;99.90;;;;;;5136689;27;20293;-35
2023/03/28 00:18:07;;;;;;;;;;;2.00;99.90;;;;;;5136849;27;19927;-35
2023/03/28 00:20:37;;;;;;;;;;;2.00;99.90;;;;;;5136989;27;19931;-36
2023/03/28 00:23:03;;;;;;;;;;;1.90;99.90;;;;;;5131777;27;19930;-35
2023/03/28 00:25:33;;;;;;;;;;;2.00;99.90;;;;;;5151339;27;20010;-35
2023/03/28 00:27:59;;;;;;;;;;;1.90;99.90;;;;;;5123633;27;19930;-36
2023/03/28 00:30:27;;;;;;;;;;;1.90;99.90;;;;;;5161373;27;19976;-35
2023/03/28 00:32:54;;;;;;;;;;;1.90;99.90;;;;;;5137951;27;20366;-36
2023/03/28 00:35:21;;;;;;;;;;;1.90;99.90;;;;;;5164224;27;19935;-36
2023/03/28 00:37:49;;;;;;;;;;;1.80;99.90;;;;;;5144826;27;19923;-36
2023/03/28 00:40:16;;;;;;;;;;;1.80;99.90;;;;;;5165246;27;20115;-36
2023/03/28 00:42:43;;;;;;;;;;;1.80;99.90;;;;;;5154729;27;19923;-36
2023/03/28 00:45:11;;;;;;;;;;;1.80;99.90;;;;;;5138282;27;19958;-35
2023/03/28 00:47:40;;;;;;;;;;;1.80;99.90;;;;;;5134084;27;19927;-36
2023/03/28 00:50:09;;;;;;;;;;;1.80;99.90;;;;;;5138655;27;19924;-36
2023/03/28 00:52:38;;;;;;;;;;;1.80;99.90;;;;;;5152639;27;19975;-36
2023/03/28 00:55:05;;;;;;;;;;;1.70;99.90;;;;;;5142276;27;19931;-36
2023/03/28 00:57:32;;;;;;;;;;;1.70;99.90;;;;;;5122463;27;20443;-36
2023/03/28 00:59:59;;;;;;;;;;;1.70;99.90;;;;;;5158986;27;19930;-36
2023/03/28 01:02:25;;;;;;;;;;;1.70;99.90;;;;;;5146950;27;19968;-36
2023/03/28 01:04:56;;;;;;;;;;;1.70;99.90;;;;;;5123068;27;19979;-36
2023/03/28 01:07:23;;;;;;;;;;;1.60;99.90;;;;;;5118830;27;19923;-36
2023/03/28 01:09:50;;;;;;;;;;;1.60;99.90;;;;;;5124358;27;19923;-36
2023/03/28 01:12:16;;;;;;;;;;;1.60;99.90;;;;;;5136380;27;19934;-36
2023/03/28 01:14:43;;;;;;;;;;;1.60;99.90;;;;;;5136668;27;20294;-37
2023/03/28 01:17:09;;;;;;;;;;;1.60;99.90;;;;;;5172281;27;19974;-36
2023/03/28 01:19:41;;;;;;;;;;;1.60;99.90;;;;;;5151935;27;19977;-36
2023/03/28 01:22:23;;;;;;;;;;;1.50;99.90;;;;;;5122887;27;19927;-37
2023/03/28 01:25:00;;;;;;;;;;;1.50;99.90;;;;;;5144947;27;19968;-36
2023/03/28 01:27:27;;;;;;;;;;;1.50;99.90;;;;;;5152256;27;20428;-36
2023/03/28 01:30:12;;;;;;;;;;;1.50;99.90;;;;;;5135414;27;19938;-36
2023/03/28 01:32:55;;;;;;;;;;;1.50;99.90;;;;;;5152245;27;19927;-36
2023/03/28 01:35:28;;;;;;;;;;;1.40;99.90;;;;;;5135359;27;19928;-36
2023/03/28 01:37:56;;;;;;;;;;;1.40;99.90;;;;;;5152344;27;19923;-36
2023/03/28 01:40:25;;;;;;;;;;;1.40;99.90;;;;;;5149728;27;19970;-36
2023/03/28 01:42:53;;;;;;;;;;;1.40;99.90;;;;;;5142766;27;20013;-36
2023/03/28 01:45:21;;;;;;;;;;;1.30;99.90;;;;;;5122620;27;19923;-35
2023/03/28 01:47:49;;;;;;;;;;;1.30;99.90;;;;;;5123834;27;20024;-36
2023/03/28 01:50:17;;;;;;;;;;;1.30;99.90;;;;;;5135950;27;19927;-36
2023/03/28 01:52:45;;;;;;;;;;;1.30;99.90;;;;;;5120759;27;19923;-36
2023/03/28 01:55:15;;;;;;;;;;;1.30;99.90;;;;;;5166834;27;20271;-37
2023/03/28 01:57:44;;;;;;;;;;;1.20;99.90;;;;;;5130122;27;19924;-37
2023/03/28 02:00:12;;;;;;;;;;;1.20;99.90;;;;;;5135162;27;19928;-37
2023/03/28 02:02:40;;;;;;;;;;;1.20;99.90;;;;;;5154838;27;19967;-36
2023/03/28 02:05:08;;;;;;;;;;;1.20;99.90;;;;;;5133708;27;19927;-36
2023/03/28 02:07:35;;;;;;;;;;;1.20;99.90;;;;;;5116207;27;19935;-36
2023/03/28 02:10:01;;;;;;;;;;;1.10;99.90;;;;;;5140597;27;19927;-36
2023/03/28 02:12:30;;;;;;;;;;;1.10;99.90;;;;;;5150054;27;19927;-36
2023/03/28 02:14:57;;;;;;;;;;;1.20;99.90;;;;;;5134107;27;19930;-36
2023/03/28 02:17:24;;;;;;;;;;;1.00;99.90;;;;;;5151294;27;19927;-36
2023/03/28 02:19:52;;;;;;;;;;;1.10;99.90;;;;;;5126016;27;19931;-36
2023/03/28 02:22:20;;;;;;;;;;;1.00;99.90;;;;;;5123732;27;19923;-37
2023/03/28 02:24:50;;;;;;;;;;;1.00;99.90;;;;;;5118498;27;19931;-36
2023/03/28 02:27:17;;;;;;;;;;;1.00;99.90;;;;;;5132422;27;19971;-36
2023/03/28 02:29:46;;;;;;;;;;;1.00;99.90;;;;;;5146995;27;20383;-36
2023/03/28 02:32:13;;;;;;;;;;;1.00;99.90;;;;;;5147135;27;19923;-37
2023/03/28 02:34:40;;;;;;;;;;;0.90;99.90;;;;;;5152938;27;19923;-36
2023/03/28 02:37:09;;;;;;;;;;;0.90;99.90;;;;;;5126965;27;19923;-37
2023/03/28 02:39:47;;;;;;;;;;;0.90;99.90;;;;;;5125208;27;19930;-37
2023/03/28 02:42:28;;;;;;;;;;;0.90;99.90;;;;;;5138477;27;19923;-37
2023/03/28 02:45:14;;;;;;;;;;;0.90;99.90;;;;;;5129027;27;19923;-36
2023/03/28 02:47:44;;;;;;;;;;;0.90;99.90;;;;;;5137226;27;19923;-37
2023/03/28 02:50:13;;;;;;;;;;;0.80;99.90;;;;;;5128776;27;19929;-37
2023/03/28 02:52:50;;;;;;;;;;;0.80;99.90;;;;;;5114804;28;19976;-37
2023/03/28 02:55:18;;;;;;;;;;;0.80;99.90;;;;;;5138630;27;19923;-37
2023/03/28 02:57:45;;;;;;;;;;;0.80;99.90;;;;;;5139293;27;20339;-37
2023/03/28 03:00:12;;;;;;;;;;;0.80;99.90;;;;;;5133966;27;19927;-37
2023/03/28 03:02:39;;;;;;;;;;;0.70;99.90;;;;;;5140951;27;19978;-37
2023/03/28 03:05:08;;;;;;;;;;;0.70;99.90;;;;;;5147923;27;19946;-36
2023/03/28 03:07:35;;;;;;;;;;;0.70;99.90;;;;;;5134627;27;20052;-37
2023/03/28 03:10:02;;;;;;;;;;;0.70;99.90;;;;;;5141834;27;19923;-37
2023/03/28 03:12:29;;;;;;;;;;;0.70;99.90;;;;;;5141222;27;20176;-36
2023/03/28 03:14:59;;;;;;;;;;;0.60;99.90;;;;;;5146533;27;19930;-36
2023/03/28 03:17:27;;;;;;;;;;;0.60;99.90;;;;;;5150907;27;19969;-36
2023/03/28 03:19:54;;;;;;;;;;;0.60;99.90;;;;;;5144413;27;20397;-36
2023/03/28 03:22:22;;;;;;;;;;;0.60;99.90;;;;;;5156276;27;19993;-36
2023/03/28 03:24:50;;;;;;;;;;;0.60;99.90;;;;;;5146025;27;19923;-36
2023/03/28 03:27:17;;;;;;;;;;;0.60;99.90;;;;;;5140062;27;19923;-36
2023/03/28 03:29:44;;;;;;;;;;;0.50;99.90;;;;;;5131014;27;19937;-36
2023/03/28 03:32:11;;;;;;;;;;;0.50;99.90;;;;;;5119934;27;19924;-36
2023/03/28 03:34:40;;;;;;;;;;;0.50;99.90;;;;;;5153062;27;20315;-36
2023/03/28 03:37:07;;;;;;;;;;;0.50;99.90;;;;;;5133235;27;19950;-36
2023/03/28 03:39:35;;;;;;;;;;;0.50;99.90;;;;;;5136778;27;20002;-36
2023/03/28 03:42:02;;;;;;;;;;;0.50;99.90;;;;;;5121543;27;19927;-36
2023/03/28 03:44:29;;;;;;;;;;;0.50;99.90;;;;;;5140744;27;19924;-36
2023/03/28 03:46:56;;;;;;;;;;;0.50;99.90;;;;;;5121509;27;19976;-36
2023/03/28 03:49:22;;;;;;;;;;;0.40;99.90;;;;;;5168797;27;19923;-36
2023/03/28 03:51:49;;;;;;;;;;;0.50;99.90;;;;;;5172897;27;20286;-36
2023/03/28 03:54:16;;;;;;;;;;;0.50;99.90;;;;;;5155868;27;19967;-36
2023/03/28 03:56:44;;;;;;;;;;;0.40;99.90;;;;;;5125891;27;19949;-36
2023/03/28 03:59:10;;;;;;;;;;;0.40;99.90;;;;;;5126772;27;20387;-37
2023/03/28 04:01:38;;;;;;;;;;;0.40;99.90;;;;;;5135175;27;20000;-36
2023/03/28 04:04:06;;;;;;;;;;;0.40;99.90;;;;;;5133707;27;19930;-36
2023/03/28 04:06:32;;;;;;;;;;;0.40;99.90;;;;;;5130992;27;20018;-36
2023/03/28 04:08:59;;;;;;;;;;;0.40;99.90;;;;;;5163467;27;19976;-36
2023/03/28 04:11:26;;;;;;;;;;;0.40;99.90;;;;;;5155041;27;19923;-37
2023/03/28 04:13:54;;;;;;;;;;;0.30;99.90;;;;;;5144930;27;19996;-36
2023/03/28 04:16:22;;;;;;;;;;;0.30;99.90;;;;;;5122572;27;20378;-36
2023/03/28 04:18:51;;;;;;;;;;;0.30;99.90;;;;;;5168495;27;19923;-37
2023/03/28 04:21:18;;;;;;;;;;;0.30;99.90;;;;;;5154390;27;19923;-37
2023/03/28 04:23:47;;;;;;;;;;;0.30;99.90;;;;;;5146619;27;19927;-36
2023/03/28 04:26:14;;;;;;;;;;;0.40;99.90;;;;;;5140110;27;19923;-36
2023/03/28 04:28:42;;;;;;;;;;;0.40;99.90;;;;;;5161113;27;19945;-36
2023/03/28 04:31:10;;;;;;;;;;;0.50;99.90;;;;;;5163518;27;20390;-36
2023/03/28 04:33:37;;;;;;;;;;;0.40;99.90;;;;;;5126479;27;19984;-36
2023/03/28 04:36:04;;;;;;;;;;;0.40;99.90;;;;;;5151859;27;19930;-36
2023/03/28 04:38:35;;;;;;;;;;;0.50;99.90;;;;;;5146287;27;19931;-36
2023/03/28 04:41:03;;;;;;;;;;;0.50;99.90;;;;;;5128000;27;20419;-36
2023/03/28 04:43:30;;;;;;;;;;;0.50;99.90;;;;;;5151352;27;19976;-36
2023/03/28 04:45:56;;;;;;;;;;;0.50;99.90;;;;;;5148951;27;20373;-36
2023/03/28 04:48:25;;;;;;;;;;;0.60;99.90;;;;;;5126422;27;20058;-36
2023/03/28 04:50:51;;;;;;;;;;;0.60;99.90;;;;;;5136364;27;19923;-35
2023/03/28 04:53:18;;;;;;;;;;;0.60;99.90;;;;;;5166532;27;19924;-35
2023/03/28 04:55:47;;;;;;;;;;;0.60;99.90;;;;;;5135456;27;19976;-36
2023/03/28 04:58:14;;;;;;;;;;;0.60;99.90;;;;;;5116577;27;19924;-36
2023/03/28 05:00:41;;;;;;;;;;;0.60;99.90;;;;;;5146391;27;20056;-36
2023/03/28 05:03:10;;;;;;;;;;;0.70;99.90;;;;;;5125965;27;19923;-36
2023/03/28 05:05:38;;;;;;;;;;;0.70;99.90;;;;;;5122600;27;19927;-36
2023/03/28 05:08:05;;;;;;;;;;;0.70;99.90;;;;;;5140748;27;20328;-35
2023/03/28 05:10:32;;;;;;;;;;;0.70;99.90;;;;;;5139884;27;19930;-37
2023/03/28 05:12:58;;;;;;;;;;;0.70;99.90;;;;;;5127113;27;19976;-36
2023/03/28 05:15:25;;;;;;;;;;;0.80;99.90;;;;;;5117223;27;19923;-35
2023/03/28 05:17:52;;;;;;;;;;;0.70;99.90;;;;;;5144869;27;19983;-36
2023/03/28 05:20:19;;;;;;;;;;;0.70;99.90;;;;;;5139920;27;19976;-36
2023/03/28 05:22:47;;;;;;;;;;;0.70;99.90;;;;;;5155101;27;19976;-36
2023/03/28 05:25:14;;;;;;;;;;;0.70;99.90;;;;;;5130126;27;19931;-36
2023/03/28 05:27:41;;;;;;;;;;;0.80;99.90;;;;;;5123146;27;19923;-36
2023/03/28 05:30:08;;;;;;;;;;;0.70;99.90;;;;;;5120391;27;20019;-36
2023/03/28 05:32:36;;;;;;;;;;;0.70;99.90;;;;;;5145620;27;19923;-36
2023/03/28 05:35:03;;;;;;;;;;;0.70;99.90;;;;;;5132909;27;20418;-36
2023/03/28 05:37:29;;;;;;;;;;;0.70;99.90;;;;;;5150426;27;19927;-36
2023/03/28 05:39:57;;;;;;;;;;;0.70;99.90;;;;;;5125890;27;19980;-36
2023/03/28 05:42:24;;;;;;;;;;;0.70;99.90;;;;;;5151964;27;19966;-36
2023/03/28 05:44:51;;;;;;;;;;;0.70;99.90;;;;;;5142687;27;20289;-36
2023/03/28 05:47:18;;;;;;;;;;;0.70;99.90;;;;;;5137059;27;19923;-36
2023/03/28 05:49:44;;;;;;;;;;;0.70;99.90;;;;;;5133544;27;19930;-36
2023/03/28 05:52:11;;;;;;;;;;;0.70;99.90;;;;;;5118188;27;19967;-37
2023/03/28 05:54:38;;;;;;;;;;;0.70;99.90;;;;;;5159986;27;19923;-36
2023/03/28 05:57:06;;;;;;;;;;;0.70;99.90;;;;;;5141100;27;19927;-36
2023/03/28 05:59:32;;;;;;;;;;;0.70;99.90;;;;;;5124881;27;19970;-36
2023/03/28 06:02:00;;;;;;;;;;;0.80;99.90;;;;;;5147673;27;19923;-37
2023/03/28 06:04:26;;;;;;;;;;;0.80;99.90;;;;;;5131484;27;20437;-36
2023/03/28 06:06:53;;;;;;;;;;;0.80;99.90;;;;;;5146585;27;20328;-36
2023/03/28 06:09:20;;;;;;;;;;;0.80;99.90;;;;;;5149510;27;19974;-36
2023/03/28 06:11:46;;;;;;;;;;;0.90;99.90;;;;;;5148915;27;20387;-36
2023/03/28 06:14:14;;;;;;;;;;;0.90;99.90;;;;;;5132498;27;20385;-37
2023/03/28 06:16:41;;;;;;;;;;;1.00;99.90;;;;;;5150609;27;20684;-36
2023/03/28 06:19:08;;;;;;;;;;;1.00;99.90;;;;;;5149738;27;19923;-37
2023/03/28 06:21:34;;;;;;;;;;;1.10;99.90;;;;;;5134044;27;19972;-36
2023/03/28 06:24:01;;;;;;;;;;;1.10;99.90;;;;;;5148193;27;19927;-37
2023/03/28 06:26:28;;;;;;;;;;;1.20;99.90;;;;;;5124636;27;19931;-37
2023/03/28 06:28:54;;;;;;;;;;;1.30;99.90;;;;;;5152395;27;20156;-37
2023/03/28 06:31:22;;;;;;;;;;;1.30;99.90;;;;;;5145797;27;19974;-36
2023/03/28 06:33:49;;;;;;;;;;;1.40;99.90;;;;;;5128147;27;20354;-36
2023/03/28 06:36:16;;;;;;;;;;;1.50;99.90;;;;;;5147483;27;19927;-35
2023/03/28 06:38:42;;;;;;;;;;;1.70;99.90;;;;;;5125498;27;20091;-36
2023/03/28 06:41:09;;;;;;;;;;;1.80;99.90;;;;;;5141113;27;20020;-36
2023/03/28 06:43:35;;;;;;;;;;;1.90;99.90;;;;;;5127509;27;19931;-36
2023/03/28 06:46:02;;;;;;;;;;;2.00;99.90;;;;;;5167355;27;19923;-36
2023/03/28 06:48:30;;;;;;;;;;;2.20;99.90;;;;;;5128603;27;20023;-36
2023/03/28 06:50:57;;;;;;;;;;;2.20;99.90;;;;;;5131561;27;19923;-36
2023/03/28 06:53:24;;;;;;;;;;;2.30;99.90;;;;;;5143514;27;19931;-36
2023/03/28 06:55:51;;;;;;;;;;;2.50;99.90;;;;;;5170134;27;20430;-36
2023/03/28 06:58:17;;;;;;;;;;;2.50;99.90;;;;;;5133040;27;19923;-35
2023/03/28 07:00:44;;;;;;;;;;;2.60;99.90;;;;;;5136455;27;19923;-36
2023/03/28 07:03:11;;;;;;;;;;;2.70;99.90;;;;;;5167884;27;20320;-36
2023/03/28 07:05:39;;;;;;;;;;;2.90;99.90;;;;;;5119567;27;19927;-36
2023/03/28 07:08:05;;;;;;;;;;;3.00;99.90;;;;;;5131365;27;19932;-36
2023/03/28 07:10:32;;;;;;;;;;;3.10;99.90;;;;;;5132131;27;19923;-35
2023/03/28 07:12:59;;;;;;;;;;;3.20;99.90;;;;;;5141283;27;20278;-36
2023/03/28 07:15:25;;;;;;;;;;;3.20;99.90;;;;;;5149456;27;19970;-36
2023/03/28 07:17:53;;;;;;;;;;;3.30;99.90;;;;;;5159804;27;19923;-35
2023/03/28 07:20:19;;;;;;;;;;;3.40;99.90;;;;;;5124921;27;20275;-36
2023/03/28 07:22:47;;;;;;;;;;;3.50;99.90;;;;;;5142039;27;19923;-36
2023/03/28 07:25:14;;;;;;;;;;;3.80;99.90;;;;;;5144993;27;19924;-36
2023/03/28 07:27:40;;;;;;;;;;;4.00;99.90;;;;;;5150731;27;19935;-35
2023/03/28 07:30:08;;;;;;;;;;;4.20;99.90;;;;;;5143195;27;20010;-34
2023/03/28 07:32:35;;;;;;;;;;;4.50;99.90;;;;;;5125992;27;19997;-35
2023/03/28 07:35:02;;;;;;;;;;;4.60;99.90;;;;;;5131821;27;19937;-35
2023/03/28 07:37:28;;;;;;;;;;;4.70;99.90;;;;;;5149551;27;19923;-34
2023/03/28 07:39:56;;;;;;;;;;;4.80;99.90;;;;;;5148757;27;20016;-34
2023/03/28 07:42:23;;;;;;;;;;;5.00;99.90;;;;;;5134932;27;19931;-34
2023/03/28 07:44:50;;;;;;;;;;;5.10;99.90;;;;;;5126859;27;19983;-35
2023/03/28 07:47:17;;;;;;;;;;;5.10;99.90;;;;;;5128547;27;19923;-35
2023/03/28 07:49:44;;;;;;;;;;;5.10;99.90;;;;;;5150109;27;19927;-35
2023/03/28 07:52:10;;;;;;;;;;;5.20;99.90;;;;;;5135211;27;19927;-35
2023/03/28 07:54:37;;;;;;;;;;;5.20;99.90;;;;;;5147189;27;19923;-36
2023/03/28 07:57:05;;;;;;;;;;;5.30;99.90;;;;;;5146497;27;19928;-33
2023/03/28 07:59:32;;;;;;;;;;;5.30;99.90;;;;;;5156330;27;19931;-34
2023/03/28 08:01:59;;;;;;;;;;;5.30;99.90;;;;;;5160091;27;19923;-34
2023/03/28 08:04:25;;;;;;;;;;;5.30;99.90;;;;;;5126240;27;19927;-35
2023/03/28 08:06:52;;;;;;;;;;;5.30;99.90;;;;;;5151288;27;19928;-35
2023/03/28 08:09:19;;;;;;;;;;;5.40;99.90;;;;;;5133502;27;19968;-35
2023/03/28 08:11:46;;;;;;;;;;;5.50;99.90;;;;;;5151844;27;19923;-35
2023/03/28 08:14:15;;;;;;;;;;;5.50;99.90;;;;;;5136780;27;19927;-36
2023/03/28 08:16:41;;;;;;;;;;;5.70;99.90;;;;;;5137937;27;19923;-36
2023/03/28 08:19:08;;;;;;;;;;;5.80;99.90;;;;;;5168885;27;19984;-35
2023/03/28 08:21:35;;;;;;;;;;;6.00;99.90;;;;;;5152417;27;19976;-35
2023/03/28 08:24:01;;;;;;;;;;;6.10;99.90;;;;;;5133430;27;19927;-35
2023/03/28 08:26:28;;;;;;;;;;;6.30;99.90;;;;;;5153635;27;19958;-35
2023/03/28 08:28:57;;;;;;;;;;;6.30;99.90;;;;;;5153683;27;20370;-36
2023/03/28 08:31:26;;;;;;;;;;;6.30;99.90;;;;;;5151553;27;19927;-35
2023/03/28 08:33:52;;;;;;;;;;;6.30;99.90;;;;;;5135834;27;19927;-33
2023/03/28 08:36:19;;;;;;;;;;;6.40;99.90;;;;;;5135531;27;20308;-36
2023/03/28 08:38:46;;;;;;;;;;;6.40;99.90;;;;;;5136463;27;19923;-36
2023/03/28 08:41:17;;;;;;;;;;;6.50;99.90;;;;;;5154859;27;19924;-36
2023/03/28 08:43:53;;;;;;;;;;;6.60;99.90;;;;;;5136853;27;20336;-35
2023/03/28 08:46:21;;;;;;;;;;;6.70;99.90;;;;;;5136460;27;19954;-35
2023/03/28 08:48:49;;;;;;;;;;;6.70;99.90;;;;;;5150995;27;19930;-36
2023/03/28 08:51:18;;;;;;;;;;;6.80;99.90;;;;;;5152073;27;20032;-36
2023/03/28 08:53:46;;;;;;;;;;;6.90;99.90;;;;;;5141760;27;19928;-36
2023/03/28 08:56:13;;;;;;;;;;;7.00;99.90;;;;;;5116050;27;19923;-35
2023/03/28 08:58:41;;;;;;;;;;;7.00;99.90;;;;;;5133959;27;19924;-36
2023/03/28 09:01:08;;;;;;;;;;;7.10;99.90;;;;;;5133162;27;19924;-36
2023/03/28 09:03:35;;;;;;;;;;;7.30;99.90;;;;;;5134318;27;20033;-36
2023/03/28 09:06:05;;;;;;;;;;;7.40;99.90;;;;;;5133768;27;20404;-36
2023/03/28 09:08:44;;;;;;;;;;;7.60;99.90;;;;;;5115757;27;19953;-36
2023/03/28 09:11:15;;;;;;;;;;;7.70;99.90;;;;;;5133828;27;19927;-36
2023/03/28 09:13:43;;;;;;;;;;;8.00;99.90;;;;;;5122172;27;20366;-36
2023/03/28 09:16:27;;;;;;;;;;;8.20;99.90;;;;;;5136133;27;19930;-36
2023/03/28 09:19:09;;;;;;;;;;;8.40;99.90;;;;;;5134474;27;19988;-35
2023/03/28 09:21:39;;;;;;;;;;;8.60;99.90;;;;;;5135237;27;19923;-36
2023/03/28 09:24:09;;;;;;;;;;;8.70;99.90;;;;;;5135981;27;20414;-35
2023/03/28 09:26:37;;;;;;;;;;;8.70;99.90;;;;;;5135298;27;19927;-35
2023/03/28 09:29:04;;;;;;;;;;;8.60;99.90;;;;;;5133905;27;19931;-35
2023/03/28 09:31:31;;;;;;;;;;;8.60;99.90;;;;;;5153357;27;19923;-35
2023/03/28 09:33:59;;;;;;;;;;;8.80;99.90;;;;;;5135556;27;19923;-34
2023/03/28 09:36:26;;;;;;;;;;;9.10;99.90;;;;;;5153711;27;19923;-35
2023/03/28 09:38:56;;;;;;;;;;;9.30;99.90;;;;;;5132521;27;20469;-34
2023/03/28 09:41:24;;;;;;;;;;;9.40;98.00;;;;;;5119873;27;19923;-34
2023/03/28 09:43:51;;;;;;;;;;;9.40;96.20;;;;;;5114822;27;20475;-34
2023/03/28 09:46:18;;;;;;;;;;;9.30;97.00;;;;;;5133498;27;20225;-34
2023/03/28 09:48:45;;;;;;;;;;;9.30;99.80;;;;;;5144034;27;20398;-35
2023/03/28 09:51:13;;;;;;;;;;;9.30;99.90;;;;;;5135339;27;19982;-34
2023/03/28 09:53:41;;;;;;;;;;;9.40;99.90;;;;;;5134735;27;19927;-34
2023/03/28 09:56:12;;;;;;;;;;;9.30;94.70;;;;;;5134018;27;20019;-35
2023/03/28 09:58:46;;;;;;;;;;;9.30;99.00;;;;;;5138949;27;19976;-35
2023/03/28 10:01:23;;;;;;;;;;;9.20;98.20;;;;;;5124691;27;19924;-35
2023/03/28 10:03:51;;;;;;;;;;;9.20;98.70;;;;;;5132208;27;20426;-35
2023/03/28 10:06:18;;;;;;;;;;;9.30;99.10;;;;;;5132202;27;19934;-36
2023/03/28 10:08:45;;;;;;;;;;;9.30;99.90;;;;;;5148688;27;19927;-35
2023/03/28 10:11:13;;;;;;;;;;;9.40;99.90;;;;;;5132464;27;20039;-35
2023/03/28 10:13:40;;;;;;;;;;;9.60;98.30;;;;;;5145009;27;19934;-34
2023/03/28 10:16:08;;;;;;;;;;;9.60;93.00;;;;;;5134499;27;19930;-34
2023/03/28 10:18:34;;;;;;;;;;;9.60;95.40;;;;;;5153178;27;19963;-35
2023/03/28 10:21:06;;;;;;;;;;;9.60;96.20;;;;;;5137501;27;20373;-35
2023/03/28 10:23:33;;;;;;;;;;;9.60;96.10;;;;;;5114655;27;19968;-34
2023/03/28 10:26:01;;;;;;;;;;;9.70;97.80;;;;;;5132293;27;20050;-34
2023/03/28 10:28:30;;;;;;;;;;;9.80;92.60;;;;;;5145668;27;20301;-36
2023/03/28 10:30:57;;;;;;;;;;;9.90;95.50;;;;;;5132211;27;19923;-35
2023/03/28 10:33:25;;;;;;;;;;;9.90;93.80;;;;;;5137467;27;19974;-34
2023/03/28 10:35:56;;;;;;;;;;;9.90;93.20;;;;;;5149164;27;19923;-35
2023/03/28 10:38:23;;;;;;;;;;;9.90;94.80;;;;;;5143817;27;19950;-34
2023/03/28 10:40:51;;;;;;;;;;;10.00;96.50;;;;;;5152865;27;20375;-35
2023/03/28 10:43:17;;;;;;;;;;;10.20;94.70;;;;;;5128554;27;20374;-34
2023/03/28 10:45:46;;;;;;;;;;;10.20;93.30;;;;;;5132625;27;19923;-35
2023/03/28 10:48:13;;;;;;;;;;;10.20;91.30;;;;;;5119772;27;19923;-35
2023/03/28 10:50:40;;;;;;;;;;;10.20;91.70;;;;;;5126098;27;20005;-35
2023/03/28 10:53:11;;;;;;;;;;;10.10;91.40;;;;;;5140038;27;20042;-35
2023/03/28 10:55:39;;;;;;;;;;;10.00;92.30;;;;;;5144340;27;19924;-35
2023/03/28 10:58:07;;;;;;;;;;;9.90;93.40;;;;;;5144058;27;19930;-35
2023/03/28 11:00:34;;;;;;;;;;;9.90;95.80;;;;;;5120640;27;19923;-34
2023/03/28 11:03:09;;;;;;;;;;;9.90;95.40;;;;;;5143106;27;19935;-34
2023/03/28 11:05:39;;;;;;;;;;;9.90;96.90;;;;;;5126407;27;19927;-34
2023/03/28 11:08:09;;;;;;;;;;;10.10;96.20;;;;;;5139260;27;19984;-35
2023/03/28 11:10:37;;;;;;;;;;;10.20;98.40;;;;;;5126601;27;20361;-35
2023/03/28 11:13:07;;;;;;;;;;;10.50;97.20;;;;;;5124510;27;19950;-35
2023/03/28 11:15:34;;;;;;;;;;;10.70;97.20;;;;;;5135709;27;19927;-36
2023/03/28 11:18:03;;;;;;;;;;;10.90;93.30;;;;;;5151562;27;20018;-33
2023/03/28 11:20:33;;;;;;;;;;;10.90;93.60;;;;;;5134685;27;19997;-35
2023/03/28 11:23:07;;;;;;;;;;;10.90;90.80;;;;;;5145750;27;19962;-34
2023/03/28 11:25:36;;;;;;;;;;;10.80;85.40;;;;;;5141326;27;19967;-34
2023/03/28 11:28:04;;;;;;;;;;;10.80;89.20;;;;;;5119667;27;19923;-34
2023/03/28 11:30:31;;;;;;;;;;;10.80;92.00;;;;;;5131470;27;19984;-35
2023/03/28 11:33:00;;;;;;;;;;;10.80;91.30;;;;;;5136755;27;19926;-35
2023/03/28 11:35:29;;;;;;;;;;;10.80;93.40;;;;;;5147182;27;19957;-36
2023/03/28 11:37:59;;;;;;;;;;;10.80;92.40;;;;;;5116958;27;19933;-36
2023/03/28 11:40:27;;;;;;;;;;;10.80;90.90;;;;;;5131380;27;19959;-35
2023/03/28 11:42:54;;;;;;;;;;;10.80;88.60;;;;;;5119029;27;20392;-35
2023/03/28 11:45:23;;;;;;;;;;;10.70;84.20;;;;;;5137297;27;20006;-35
2023/03/28 11:47:50;;;;;;;;;;;10.70;88.10;;;;;;5137818;27;19929;-35
2023/03/28 11:50:18;;;;;;;;;;;10.80;87.90;;;;;;5136227;27;20370;-35
2023/03/28 11:52:46;;;;;;;;;;;10.70;88.70;;;;;;5156132;27;19999;-36
2023/03/28 11:55:15;;;;;;;;;;;10.70;81.70;;;;;;5155723;27;20014;-35
2023/03/28 11:57:45;;;;;;;;;;;10.70;85.10;;;;;;5155971;27;20394;-35
2023/03/28 12:00:17;;;;;;;;;;;10.80;87.00;;;;;;5137494;27;19930;-35
2023/03/28 12:02:46;;;;;;;;;;;10.80;87.10;;;;;;5155915;27;19927;-35
2023/03/28 12:05:16;;;;;;;;;;;10.80;86.50;;;;;;5146958;27;20287;-34
2023/03/28 12:07:43;;;;;;;;;;;10.70;82.40;;;;;;5116534;27;19946;-35
2023/03/28 12:10:14;;;;;;;;;;;10.60;79.80;;;;;;5134511;27;20368;-35
2023/03/28 12:12:44;;;;;;;;;;;10.60;85.70;;;;;;5120650;27;20018;-34
2023/03/28 12:15:13;;;;;;;;;;;10.70;87.60;;;;;;5153781;27;19971;-34
2023/03/28 12:17:40;;;;;;;;;;;10.70;80.40;;;;;;5137342;27;19927;-35
2023/03/28 12:20:12;;;;;;;;;;;10.60;80.90;;;;;;5156543;27;19970;-34
2023/03/28 12:22:40;;;;;;;;;;;10.60;81.70;;;;;;5192826;27;19927;-34
2023/03/28 12:25:07;;;;;;;;;;;10.80;82.60;;;;;;5163624;27;19923;-34
2023/03/28 12:27:41;;;;;;;;;;;10.90;83.80;;;;;;5134583;27;20351;-34
2023/03/28 12:30:11;;;;;;;;;;;11.00;85.90;;;;;;5134656;27;19930;-34
2023/03/28 12:32:41;;;;;;;;;;;11.10;79.40;;;;;;5151323;27;20002;-33
2023/03/28 12:35:12;;;;;;;;;;;11.10;78.00;;;;;;5133035;27;19931;-34
2023/03/28 12:37:41;;;;;;;;;;;11.20;77.90;;;;;;5133670;27;20026;-34
2023/03/28 12:40:18;;;;;;;;;;;11.30;82.60;;;;;;5151960;27;19949;-35
2023/03/28 12:42:45;;;;;;;;;;;11.30;78.90;;;;;;5154912;27;20428;-36
2023/03/28 12:45:14;;;;;;;;;;;11.40;82.70;;;;;;5155341;27;19923;-34
2023/03/28 12:47:41;;;;;;;;;;;11.40;73.00;;;;;;5135002;27;19923;-33
2023/03/28 12:50:09;;;;;;;;;;;11.30;72.20;;;;;;5151450;27;20390;-34
2023/03/28 12:52:37;;;;;;;;;;;11.20;77.40;;;;;;5141091;27;19953;-35
2023/03/28 12:55:06;;;;;;;;;;;11.20;79.10;;;;;;5148080;27;19934;-36
2023/03/28 12:57:43;;;;;;;;;;;11.20;79.30;;;;;;5151420;27;19966;-35
2023/03/28 13:00:25;;;;;;;;;;;11.20;76.70;;;;;;5135061;27;19923;-35
2023/03/28 13:02:53;;;;;;;;;;;11.20;78.90;;;;;;5115695;27;20286;-35
2023/03/28 13:05:20;;;;;;;;;;;11.10;77.30;;;;;;5117188;27;19923;-35
2023/03/28 13:07:52;;;;;;;;;;;11.10;76.00;;;;;;5117054;27;19970;-35
2023/03/28 13:10:20;;;;;;;;;;;10.90;72.00;;;;;;5135258;27;19923;-35
2023/03/28 13:12:48;;;;;;;;;;;10.80;75.60;;;;;;5151543;27;19990;-36
2023/03/28 13:15:24;;;;;;;;;;;10.90;77.20;;;;;;5154064;27;20373;-35
2023/03/28 13:18:06;;;;;;;;;;;10.90;77.50;;;;;;5130020;27;19967;-34
2023/03/28 13:20:34;;;;;;;;;;;10.90;75.60;;;;;;5119365;27;19930;-34
2023/03/28 13:23:01;;;;;;;;;;;10.90;77.80;;;;;;5134350;27;19924;-34
2023/03/28 13:25:28;;;;;;;;;;;11.00;80.10;;;;;;5126105;27;20398;-35
2023/03/28 13:27:55;;;;;;;;;;;11.00;81.10;;;;;;5143646;27;19935;-35
2023/03/28 13:30:25;;;;;;;;;;;10.90;79.10;;;;;;5140264;27;19967;-35
2023/03/28 13:32:52;;;;;;;;;;;10.90;79.00;;;;;;5130511;27;20378;-35
2023/03/28 13:35:40;;;;;;;;;;;10.90;78.80;;;;;;5134826;27;19923;-35
2023/03/28 13:38:22;;;;;;;;;;;10.80;77.60;;;;;;5150741;27;19923;-35
2023/03/28 13:40:53;;;;;;;;;;;10.90;79.20;;;;;;5116620;27;20323;-35
2023/03/28 13:43:32;;;;;;;;;;;10.90;77.30;;;;;;5115359;27;19923;-35
2023/03/28 13:45:59;;;;;;;;;;;11.00;75.50;;;;;;5136725;27;19924;-35
2023/03/28 13:48:27;;;;;;;;;;;11.10;81.70;;;;;;5138838;27;20271;-35
2023/03/28 13:50:56;;;;;;;;;;;11.30;80.70;;;;;;5137668;27;19979;-35
2023/03/28 13:53:22;;;;;;;;;;;11.40;78.60;;;;;;5157633;27;20378;-36
2023/03/28 13:55:55;;;;;;;;;;;11.40;79.30;;;;;;5160649;27;19971;-35
2023/03/28 13:58:22;;;;;;;;;;;11.30;75.60;;;;;;5117120;27;20781;-34
2023/03/28 14:00:48;;;;;;;;;;;11.30;78.50;;;;;;5137386;27;20130;-34
2023/03/28 14:03:15;;;;;;;;;;;11.20;81.70;;;;;;5141913;27;19963;-35
2023/03/28 14:05:42;;;;;;;;;;;11.30;80.80;;;;;;5146921;27;20390;-35
2023/03/28 14:08:20;;;;;;;;;;;11.30;82.30;;;;;;5123488;27;19923;-35
2023/03/28 14:10:47;;;;;;;;;;;11.30;79.20;;;;;;5134294;27;20283;-35
2023/03/28 14:13:14;;;;;;;;;;;11.40;82.20;;;;;;5123303;27;19924;-35
2023/03/28 14:15:42;;;;;;;;;;;11.40;79.00;;;;;;5135118;27;19966;-34
2023/03/28 14:18:12;;;;;;;;;;;11.30;77.10;;;;;;5159817;27;19923;-35
2023/03/28 14:20:39;;;;;;;;;;;11.00;73.60;;;;;;5122378;27;19932;-35
2023/03/28 14:23:06;;;;;;;;;;;10.80;74.90;;;;;;5138057;27;19968;-35
2023/03/28 14:25:35;;;;;;;;;;;10.80;78.30;;;;;;5138914;27;19923;-35
2023/03/28 14:28:06;;;;;;;;;;;10.80;77.30;;;;;;5135794;27;20364;-37
2023/03/28 14:30:37;;;;;;;;;;;10.90;81.50;;;;;;5119277;27;19923;-35
2023/03/28 14:33:06;;;;;;;;;;;10.90;74.50;;;;;;5123516;27;19930;-36